sensor_id;sensor_type;location;lat;lon;timestamp;temperature;humidity
21744;DHT22;11034;48.556;9.342;2023-06-05T00:01:57;13.30;99.90
21744;DHT22;11034;48.556;9.342;2023-06-05T00:04:26;13.30;99.90
21744;DHT22;11034;48.556;9.342;2023-06-05T00:06:55;13.30;99.90
21744;DHT22;11034;48.556;9.342;2023-06-05T00:09:24;13.20;99.90
21744;DHT22;11034;48.556;9.342;2023-06-05T00:11:52;13.20;99.90
21744;DHT22;11034;48.556;9.342;2023-06-05T00:14:20;13.10;99.90
21744;DHT22;11034;48.556;9.342;2023-06-05T00:16:48;13.10;99.90
21744;DHT22;11034;48.556;9.342;2023-06-05T00:19:18;13.10;99.90
21744;DHT22;11034;48.556;9.342;2023-06-05T00:21:47;13.10;99.90
21744;DHT22;11034;48.556;9.342;2023-06-05T00:24:17;13.00;99.90
21744;DHT22;11034;48.556;9.342;2023-06-05T00:26:45;13.10;99.90
21744;DHT22;11034;48.556;9.342;2023-06-05T00:29:14;13.00;99.90
21744;DHT22;11034;48.556;9.342;2023-06-05T00:31:42;12.90;99.90
21744;DHT22;11034;48.556;9.342;2023-06-05T00:34:12;12.80;99.90
21744;DHT22;11034;48.556;9.342;2023-06-05T00:36:40;12.90;99.90
21744;DHT22;11034;48.556;9.342;2023-06-05T00:39:10;12.80;99.90
21744;DHT22;11034;48.556;9.342;2023-06-05T00:41:38;12.80;99.90
21744;DHT22;11034;48.556;9.342;2023-06-05T00:44:09;12.80;99.90
21744;DHT22;11034;48.556;9.342;2023-06-05T00:46:37;12.80;99.90
21744;DHT22;11034;48.556;9.342;2023-06-05T00:49:06;12.70;99.90
21744;DHT22;11034;48.556;9.342;2023-06-05T00:51:35;12.70;99.90
21744;DHT22;11034;48.556;9.342;2023-06-05T00:54:04;12.60;99.90
21744;DHT22;11034;48.556;9.342;2023-06-05T00:56:34;12.50;99.90
21744;DHT22;11034;48.556;9.342;2023-06-05T00:59:03;12.40;99.90
21744;DHT22;11034;48.556;9.342;2023-06-05T01:01:32;12.40;99.90
21744;DHT22;11034;48.556;9.342;2023-06-05T01:04:01;12.40;99.90
21744;DHT22;11034;48.556;9.342;2023-06-05T01:06:30;12.40;99.90
21744;DHT22;11034;48.556;9.342;2023-06-05T01:09:01;12.40;99.90
21744;DHT22;11034;48.556;9.342;2023-06-05T01:11:36;12.40;99.90
21744;DHT22;11034;48.556;9.342;2023-06-05T01:14:11;12.40;99.90
21744;DHT22;11034;48.556;9.342;2023-06-05T01:16:45;12.30;99.90
21744;DHT22;11034;48.556;9.342;2023-06-05T01:19:15;12.30;99.90
21744;DHT22;11034;48.556;9.342;2023-06-05T01:21:43;12.20;99.90
21744;DHT22;11034;48.556;9.342;2023-06-05T01:24:13;12.20;99.90
21744;DHT22;11034;48.556;9.342;2023-06-05T01:26:53;12.20;99.90
21744;DHT22;11034;48.556;9.342;2023-06-05T01:29:32;12.20;99.90
21744;DHT22;11034;48.556;9.342;2023-06-05T01:32:13;12.20;99.90
21744;DHT22;11034;48.556;9.342;2023-06-05T01:34:44;12.20;99.90
21744;DHT22;11034;48.556;9.342;2023-06-05T01:37:16;12.20;99.90
21744;DHT22;11034;48.556;9.342;2023-06-05T01:39:47;12.30;99.90
21744;DHT22;11034;48.556;9.342;2023-06-05T01:42:16;12.40;99.90
21744;DHT22;11034;48.556;9.342;2023-06-05T01:44:44;12.30;99.90
21744;DHT22;11034;48.556;9.342;2023-06-05T01:47:12;12.20;99.90
21744;DHT22;11034;48.556;9.342;2023-06-05T01:49:42;12.10;99.90
21744;DHT22;11034;48.556;9.342;2023-06-05T01:52:10;12.10;99.90
21744;DHT22;11034;48.556;9.342;2023-06-05T01:54:38;12.20;99.90
21744;DHT22;11034;48.556;9.342;2023-06-05T01:57:10;12.10;99.90
21744;DHT22;11034;48.556;9.342;2023-06-05T01:59:38;12.10;99.90
21744;DHT22;11034;48.556;9.342;2023-06-05T02:02:06;12.10;99.90
21744;DHT22;11034;48.556;9.342;2023-06-05T02:04:34;11.90;99.90
21744;DHT22;11034;48.556;9.342;2023-06-05T02:07:04;11.80;99.90
21744;DHT22;11034;48.556;9.342;2023-06-05T02:09:32;11.70;99.90
21744;DHT22;11034;48.556;9.342;2023-06-05T02:12:00;11.60;99.90
21744;DHT22;11034;48.556;9.342;2023-06-05T02:14:32;11.50;99.90
21744;DHT22;11034;48.556;9.342;2023-06-05T02:17:02;11.50;99.90
21744;DHT22;11034;48.556;9.342;2023-06-05T02:19:33;11.50;99.90
21744;DHT22;11034;48.556;9.342;2023-06-05T02:22:01;11.50;99.90
21744;DHT22;11034;48.556;9.342;2023-06-05T02:24:29;11.50;99.90
21744;DHT22;11034;48.556;9.342;2023-06-05T02:26:57;11.40;99.90
21744;DHT22;11034;48.556;9.342;2023-06-05T02:29:25;11.40;99.90
21744;DHT22;11034;48.556;9.342;2023-06-05T02:31:55;11.50;99.90
21744;DHT22;11034;48.556;9.342;2023-06-05T02:34:23;11.70;99.90
21744;DHT22;11034;48.556;9.342;2023-06-05T02:36:51;12.00;99.90
21744;DHT22;11034;48.556;9.342;2023-06-05T02:39:19;12.10;99.90
21744;DHT22;11034;48.556;9.342;2023-06-05T02:41:48;12.10;99.90
21744;DHT22;11034;48.556;9.342;2023-06-05T02:44:16;12.30;99.90
21744;DHT22;11034;48.556;9.342;2023-06-05T02:46:44;12.40;99.90
21744;DHT22;11034;48.556;9.342;2023-06-05T02:49:13;12.30;99.90
21744;DHT22;11034;48.556;9.342;2023-06-05T02:51:41;12.40;99.90
21744;DHT22;11034;48.556;9.342;2023-06-05T02:54:09;12.40;99.90
21744;DHT22;11034;48.556;9.342;2023-06-05T02:56:37;12.40;99.90
21744;DHT22;11034;48.556;9.342;2023-06-05T02:59:05;12.50;99.90
21744;DHT22;11034;48.556;9.342;2023-06-05T03:01:36;12.40;99.90
21744;DHT22;11034;48.556;9.342;2023-06-05T03:04:04;12.50;99.90
21744;DHT22;11034;48.556;9.342;2023-06-05T03:06:35;12.50;99.90
21744;DHT22;11034;48.556;9.342;2023-06-05T03:09:03;12.50;99.90
21744;DHT22;11034;48.556;9.342;2023-06-05T03:11:31;12.60;99.90
21744;DHT22;11034;48.556;9.342;2023-06-05T03:13:59;12.60;99.90
21744;DHT22;11034;48.556;9.342;2023-06-05T03:16:27;12.50;99.90
21744;DHT22;11034;48.556;9.342;2023-06-05T03:19:00;12.50;99.90
21744;DHT22;11034;48.556;9.342;2023-06-05T03:21:28;12.40;99.90
21744;DHT22;11034;48.556;9.342;2023-06-05T03:23:57;12.30;99.90
21744;DHT22;11034;48.556;9.342;2023-06-05T03:26:25;12.30;99.90
21744;DHT22;11034;48.556;9.342;2023-06-05T03:28:53;12.30;99.90
21744;DHT22;11034;48.556;9.342;2023-06-05T03:31:21;12.40;99.90
21744;DHT22;11034;48.556;9.342;2023-06-05T03:33:49;12.50;99.90
21744;DHT22;11034;48.556;9.342;2023-06-05T03:36:18;12.50;99.90
21744;DHT22;11034;48.556;9.342;2023-06-05T03:38:46;12.60;99.90
21744;DHT22;11034;48.556;9.342;2023-06-05T03:41:15;12.60;99.90
21744;DHT22;11034;48.556;9.342;2023-06-05T03:43:43;12.60;99.90
21744;DHT22;11034;48.556;9.342;2023-06-05T03:46:11;12.60;99.90
21744;DHT22;11034;48.556;9.342;2023-06-05T03:48:44;12.50;99.90
21744;DHT22;11034;48.556;9.342;2023-06-05T03:51:12;12.40;99.90
21744;DHT22;11034;48.556;9.342;2023-06-05T03:53:44;12.40;99.90
21744;DHT22;11034;48.556;9.342;2023-06-05T03:56:12;12.50;99.90
21744;DHT22;11034;48.556;9.342;2023-06-05T03:58:43;12.60;99.90
21744;DHT22;11034;48.556;9.342;2023-06-05T04:01:12;12.80;99.90
21744;DHT22;11034;48.556;9.342;2023-06-05T04:03:40;12.90;99.90
21744;DHT22;11034;48.556;9.342;2023-06-05T04:06:09;12.80;99.90
21744;DHT22;11034;48.556;9.342;2023-06-05T04:08:37;12.60;99.90
21744;DHT22;11034;48.556;9.342;2023-06-05T04:11:05;12.70;99.90
21744;DHT22;11034;48.556;9.342;2023-06-05T04:13:33;12.80;99.90
21744;DHT22;11034;48.556;9.342;2023-06-05T04:16:03;12.90;99.90
21744;DHT22;11034;48.556;9.342;2023-06-05T04:18:31;13.20;99.90
21744;DHT22;11034;48.556;9.342;2023-06-05T04:20:59;13.30;99.90
21744;DHT22;11034;48.556;9.342;2023-06-05T04:23:27;13.80;99.90
21744;DHT22;11034;48.556;9.342;2023-06-05T04:25:55;14.50;99.90
21744;DHT22;11034;48.556;9.342;2023-06-05T04:28:23;15.10;99.90
21744;DHT22;11034;48.556;9.342;2023-06-05T04:30:53;15.80;99.90
21744;DHT22;11034;48.556;9.342;2023-06-05T04:33:23;16.10;99.90
21744;DHT22;11034;48.556;9.342;2023-06-05T04:35:51;16.90;99.90
21744;DHT22;11034;48.556;9.342;2023-06-05T04:38:19;17.50;99.90
21744;DHT22;11034;48.556;9.342;2023-06-05T04:40:48;17.60;99.90
21744;DHT22;11034;48.556;9.342;2023-06-05T04:43:17;17.90;99.90
21744;DHT22;11034;48.556;9.342;2023-06-05T04:45:45;17.80;99.90
21744;DHT22;11034;48.556;9.342;2023-06-05T04:48:14;18.10;99.90
21744;DHT22;11034;48.556;9.342;2023-06-05T04:50:44;18.20;99.90
21744;DHT22;11034;48.556;9.342;2023-06-05T04:53:12;18.70;99.90
21744;DHT22;11034;48.556;9.342;2023-06-05T04:55:40;18.40;99.90
21744;DHT22;11034;48.556;9.342;2023-06-05T04:58:09;19.20;99.90
21744;DHT22;11034;48.556;9.342;2023-06-05T05:00:37;19.80;99.90
21744;DHT22;11034;48.556;9.342;2023-06-05T05:03:06;20.00;99.90
21744;DHT22;11034;48.556;9.342;2023-06-05T05:05:35;20.40;99.90
21744;DHT22;11034;48.556;9.342;2023-06-05T05:08:04;19.80;99.90
21744;DHT22;11034;48.556;9.342;2023-06-05T05:10:33;19.50;99.90
21744;DHT22;11034;48.556;9.342;2023-06-05T05:13:01;19.70;99.90
21744;DHT22;11034;48.556;9.342;2023-06-05T05:15:29;19.50;99.90
21744;DHT22;11034;48.556;9.342;2023-06-05T05:17:57;19.80;99.90
21744;DHT22;11034;48.556;9.342;2023-06-05T05:20:25;19.80;99.90
21744;DHT22;11034;48.556;9.342;2023-06-05T05:22:53;19.90;99.90
21744;DHT22;11034;48.556;9.342;2023-06-05T05:25:24;19.70;99.90
21744;DHT22;11034;48.556;9.342;2023-06-05T05:27:52;20.00;99.90
21744;DHT22;11034;48.556;9.342;2023-06-05T05:30:20;20.50;99.90
21744;DHT22;11034;48.556;9.342;2023-06-05T05:32:48;21.50;99.90
21744;DHT22;11034;48.556;9.342;2023-06-05T05:35:16;21.90;99.90
21744;DHT22;11034;48.556;9.342;2023-06-05T05:37:44;21.00;99.90
21744;DHT22;11034;48.556;9.342;2023-06-05T05:40:12;21.90;99.90
21744;DHT22;11034;48.556;9.342;2023-06-05T05:42:42;22.60;99.90
21744;DHT22;11034;48.556;9.342;2023-06-05T05:45:10;23.30;99.90
21744;DHT22;11034;48.556;9.342;2023-06-05T05:47:38;23.70;99.90
21744;DHT22;11034;48.556;9.342;2023-06-05T05:50:07;24.00;99.90
21744;DHT22;11034;48.556;9.342;2023-06-05T05:52:35;24.40;99.90
21744;DHT22;11034;48.556;9.342;2023-06-05T05:55:04;24.30;99.90
21744;DHT22;11034;48.556;9.342;2023-06-05T05:57:33;24.20;99.90
21744;DHT22;11034;48.556;9.342;2023-06-05T06:00:03;23.70;99.90
21744;DHT22;11034;48.556;9.342;2023-06-05T06:02:35;22.40;99.90
21744;DHT22;11034;48.556;9.342;2023-06-05T06:05:04;22.70;99.90
21744;DHT22;11034;48.556;9.342;2023-06-05T06:07:32;23.30;99.90
21744;DHT22;11034;48.556;9.342;2023-06-05T06:10:02;24.40;99.90
21744;DHT22;11034;48.556;9.342;2023-06-05T06:12:30;23.80;99.90
21744;DHT22;11034;48.556;9.342;2023-06-05T06:14:59;25.30;99.90
21744;DHT22;11034;48.556;9.342;2023-06-05T06:17:28;25.00;99.90
21744;DHT22;11034;48.556;9.342;2023-06-05T06:19:56;26.00;99.90
21744;DHT22;11034;48.556;9.342;2023-06-05T06:22:24;26.40;99.90
21744;DHT22;11034;48.556;9.342;2023-06-05T06:24:53;26.00;99.90
21744;DHT22;11034;48.556;9.342;2023-06-05T06:27:21;25.80;99.90
21744;DHT22;11034;48.556;9.342;2023-06-05T06:29:53;25.80;99.90
21744;DHT22;11034;48.556;9.342;2023-06-05T06:32:22;26.50;99.40
21744;DHT22;11034;48.556;9.342;2023-06-05T06:34:54;26.30;99.90
21744;DHT22;11034;48.556;9.342;2023-06-05T06:37:23;27.00;99.20
21744;DHT22;11034;48.556;9.342;2023-06-05T06:39:51;27.30;99.40
21744;DHT22;11034;48.556;9.342;2023-06-05T06:42:19;26.60;99.20
21744;DHT22;11034;48.556;9.342;2023-06-05T06:44:47;26.40;99.70
21744;DHT22;11034;48.556;9.342;2023-06-05T06:47:15;26.90;99.30
21744;DHT22;11034;48.556;9.342;2023-06-05T06:49:43;26.30;99.60
21744;DHT22;11034;48.556;9.342;2023-06-05T06:52:13;26.20;99.60
21744;DHT22;11034;48.556;9.342;2023-06-05T06:54:41;26.10;99.80
21744;DHT22;11034;48.556;9.342;2023-06-05T06:57:09;25.40;99.90
21744;DHT22;11034;48.556;9.342;2023-06-05T06:59:37;25.10;99.90
21744;DHT22;11034;48.556;9.342;2023-06-05T07:02:11;25.30;99.90
21744;DHT22;11034;48.556;9.342;2023-06-05T07:04:40;24.70;99.90
21744;DHT22;11034;48.556;9.342;2023-06-05T07:07:09;24.60;99.90
21744;DHT22;11034;48.556;9.342;2023-06-05T07:09:40;25.10;99.90
21744;DHT22;11034;48.556;9.342;2023-06-05T07:12:09;24.30;99.90
21744;DHT22;11034;48.556;9.342;2023-06-05T07:14:38;25.20;99.90
21744;DHT22;11034;48.556;9.342;2023-06-05T07:17:07;23.90;99.90
21744;DHT22;11034;48.556;9.342;2023-06-05T07:19:35;23.80;99.90
21744;DHT22;11034;48.556;9.342;2023-06-05T07:22:04;23.40;99.90
21744;DHT22;11034;48.556;9.342;2023-06-05T07:24:34;23.70;99.90
21744;DHT22;11034;48.556;9.342;2023-06-05T07:27:05;24.20;99.90
21744;DHT22;11034;48.556;9.342;2023-06-05T07:29:33;23.60;99.90
21744;DHT22;11034;48.556;9.342;2023-06-05T07:32:00;23.10;99.90
21744;DHT22;11034;48.556;9.342;2023-06-05T07:34:33;23.30;99.90
21744;DHT22;11034;48.556;9.342;2023-06-05T07:37:02;23.90;99.90
21744;DHT22;11034;48.556;9.342;2023-06-05T07:39:30;23.80;99.90
21744;DHT22;11034;48.556;9.342;2023-06-05T07:41:58;23.10;99.90
21744;DHT22;11034;48.556;9.342;2023-06-05T07:44:28;22.90;99.90
21744;DHT22;11034;48.556;9.342;2023-06-05T07:46:56;23.30;99.90
21744;DHT22;11034;48.556;9.342;2023-06-05T07:49:24;23.40;99.90
21744;DHT22;11034;48.556;9.342;2023-06-05T07:51:52;23.60;99.90
21744;DHT22;11034;48.556;9.342;2023-06-05T07:54:20;24.10;99.90
21744;DHT22;11034;48.556;9.342;2023-06-05T07:56:49;24.50;99.90
21744;DHT22;11034;48.556;9.342;2023-06-05T07:59:17;23.80;99.90
21744;DHT22;11034;48.556;9.342;2023-06-05T08:01:53;24.40;99.90
21744;DHT22;11034;48.556;9.342;2023-06-05T08:04:22;24.00;99.90
21744;DHT22;11034;48.556;9.342;2023-06-05T08:06:52;23.80;99.90
21744;DHT22;11034;48.556;9.342;2023-06-05T08:09:20;23.40;99.90
21744;DHT22;11034;48.556;9.342;2023-06-05T08:11:48;24.40;99.90
21744;DHT22;11034;48.556;9.342;2023-06-05T08:14:16;24.30;99.90
21744;DHT22;11034;48.556;9.342;2023-06-05T08:16:44;24.90;99.90
21744;DHT22;11034;48.556;9.342;2023-06-05T08:19:14;24.00;99.90
21744;DHT22;11034;48.556;9.342;2023-06-05T08:21:42;24.00;99.90
21744;DHT22;11034;48.556;9.342;2023-06-05T08:24:10;24.00;99.90
21744;DHT22;11034;48.556;9.342;2023-06-05T08:26:38;24.60;99.90
21744;DHT22;11034;48.556;9.342;2023-06-05T08:29:06;25.20;99.90
21744;DHT22;11034;48.556;9.342;2023-06-05T08:31:34;25.30;99.90
21744;DHT22;11034;48.556;9.342;2023-06-05T08:34:04;25.20;99.90
21744;DHT22;11034;48.556;9.342;2023-06-05T08:36:33;24.70;99.90
21744;DHT22;11034;48.556;9.342;2023-06-05T08:39:02;24.20;99.90
21744;DHT22;11034;48.556;9.342;2023-06-05T08:41:31;24.20;99.90
21744;DHT22;11034;48.556;9.342;2023-06-05T08:44:02;24.60;99.90
21744;DHT22;11034;48.556;9.342;2023-06-05T08:46:30;23.80;99.90
21744;DHT22;11034;48.556;9.342;2023-06-05T08:49:08;24.00;99.90
21744;DHT22;11034;48.556;9.342;2023-06-05T08:51:39;23.50;99.90
21744;DHT22;11034;48.556;9.342;2023-06-05T08:54:10;23.20;99.90
21744;DHT22;11034;48.556;9.342;2023-06-05T08:56:42;23.20;99.90
21744;DHT22;11034;48.556;9.342;2023-06-05T08:59:10;22.90;99.90
21744;DHT22;11034;48.556;9.342;2023-06-05T09:01:41;23.10;99.90
21744;DHT22;11034;48.556;9.342;2023-06-05T09:04:11;22.70;99.90
21744;DHT22;11034;48.556;9.342;2023-06-05T09:06:45;22.20;99.90
21744;DHT22;11034;48.556;9.342;2023-06-05T09:09:14;22.50;99.90
21744;DHT22;11034;48.556;9.342;2023-06-05T09:11:42;22.50;99.90
21744;DHT22;11034;48.556;9.342;2023-06-05T09:14:10;22.70;99.90
21744;DHT22;11034;48.556;9.342;2023-06-05T09:16:40;22.80;99.90
21744;DHT22;11034;48.556;9.342;2023-06-05T09:19:09;22.60;99.90
21744;DHT22;11034;48.556;9.342;2023-06-05T09:21:39;22.80;99.90
21744;DHT22;11034;48.556;9.342;2023-06-05T09:24:17;22.90;99.90
21744;DHT22;11034;48.556;9.342;2023-06-05T09:26:54;23.10;99.90
21744;DHT22;11034;48.556;9.342;2023-06-05T09:29:24;23.30;99.90
21744;DHT22;11034;48.556;9.342;2023-06-05T09:31:54;23.30;99.90
21744;DHT22;11034;48.556;9.342;2023-06-05T09:34:23;23.20;99.90
21744;DHT22;11034;48.556;9.342;2023-06-05T09:36:54;23.30;99.90
21744;DHT22;11034;48.556;9.342;2023-06-05T09:39:24;23.10;99.90
21744;DHT22;11034;48.556;9.342;2023-06-05T09:41:54;22.80;99.90
21744;DHT22;11034;48.556;9.342;2023-06-05T09:44:24;22.90;99.90
21744;DHT22;11034;48.556;9.342;2023-06-05T09:46:54;23.20;99.90
21744;DHT22;11034;48.556;9.342;2023-06-05T09:49:25;23.00;99.90
21744;DHT22;11034;48.556;9.342;2023-06-05T09:51:55;23.30;99.90
21744;DHT22;11034;48.556;9.342;2023-06-05T09:54:25;23.50;99.90
21744;DHT22;11034;48.556;9.342;2023-06-05T09:56:57;23.40;99.90
21744;DHT22;11034;48.556;9.342;2023-06-05T09:59:28;23.40;99.90
21744;DHT22;11034;48.556;9.342;2023-06-05T10:02:01;23.10;99.90
21744;DHT22;11034;48.556;9.342;2023-06-05T10:04:38;23.00;99.90
21744;DHT22;11034;48.556;9.342;2023-06-05T10:07:11;23.10;99.90
21744;DHT22;11034;48.556;9.342;2023-06-05T10:09:39;23.20;99.90
21744;DHT22;11034;48.556;9.342;2023-06-05T10:12:08;23.50;99.90
21744;DHT22;11034;48.556;9.342;2023-06-05T10:14:41;23.40;99.90
21744;DHT22;11034;48.556;9.342;2023-06-05T10:17:11;23.30;99.90
21744;DHT22;11034;48.556;9.342;2023-06-05T10:19:41;23.30;99.90
21744;DHT22;11034;48.556;9.342;2023-06-05T10:22:11;23.70;99.90
21744;DHT22;11034;48.556;9.342;2023-06-05T10:24:44;24.00;99.90
21744;DHT22;11034;48.556;9.342;2023-06-05T10:27:43;23.90;99.90
21744;DHT22;11034;48.556;9.342;2023-06-05T10:30:35;24.00;99.90
21744;DHT22;11034;48.556;9.342;2023-06-05T10:33:21;24.10;99.90
21744;DHT22;11034;48.556;9.342;2023-06-05T10:35:58;24.60;99.90
21744;DHT22;11034;48.556;9.342;2023-06-05T10:38:30;25.20;99.90
21744;DHT22;11034;48.556;9.342;2023-06-05T10:41:01;24.80;99.90
21744;DHT22;11034;48.556;9.342;2023-06-05T10:43:31;24.80;99.90
21744;DHT22;11034;48.556;9.342;2023-06-05T10:46:01;24.70;99.90
21744;DHT22;11034;48.556;9.342;2023-06-05T10:49:05;24.30;99.90
21744;DHT22;11034;48.556;9.342;2023-06-05T10:51:35;24.30;99.90
21744;DHT22;11034;48.556;9.342;2023-06-05T10:54:09;24.60;99.90
21744;DHT22;11034;48.556;9.342;2023-06-05T10:56:53;24.60;99.90
21744;DHT22;11034;48.556;9.342;2023-06-05T10:59:23;24.80;99.90
21744;DHT22;11034;48.556;9.342;2023-06-05T11:02:23;25.00;99.90
21744;DHT22;11034;48.556;9.342;2023-06-05T11:05:10;25.00;99.90
21744;DHT22;11034;48.556;9.342;2023-06-05T11:07:39;24.90;99.90
21744;DHT22;11034;48.556;9.342;2023-06-05T11:10:11;24.60;99.90
21744;DHT22;11034;48.556;9.342;2023-06-05T11:12:58;24.80;99.90
21744;DHT22;11034;48.556;9.342;2023-06-05T11:15:37;24.50;99.90
21744;DHT22;11034;48.556;9.342;2023-06-05T11:18:27;24.60;99.90
21744;DHT22;11034;48.556;9.342;2023-06-05T11:20:56;24.80;99.90
21744;DHT22;11034;48.556;9.342;2023-06-05T11:23:24;25.00;99.70
21744;DHT22;11034;48.556;9.342;2023-06-05T11:28:44;25.20;98.60
21744;DHT22;11034;48.556;9.342;2023-06-05T11:31:12;24.90;99.10
21744;DHT22;11034;48.556;9.342;2023-06-05T11:33:41;24.30;99.60
21744;DHT22;11034;48.556;9.342;2023-06-05T11:36:09;23.90;99.90
21744;DHT22;11034;48.556;9.342;2023-06-05T11:38:38;23.90;99.90
21744;DHT22;11034;48.556;9.342;2023-06-05T11:41:09;23.80;99.80
21744;DHT22;11034;48.556;9.342;2023-06-05T11:43:43;23.80;99.90
21744;DHT22;11034;48.556;9.342;2023-06-05T11:46:11;24.10;99.70
21744;DHT22;11034;48.556;9.342;2023-06-05T11:48:48;24.40;99.60
21744;DHT22;11034;48.556;9.342;2023-06-05T11:51:16;24.60;99.00
21744;DHT22;11034;48.556;9.342;2023-06-05T11:53:46;25.20;98.50
21744;DHT22;11034;48.556;9.342;2023-06-05T11:56:18;25.10;98.40
21744;DHT22;11034;48.556;9.342;2023-06-05T11:58:48;25.30;97.30
21744;DHT22;11034;48.556;9.342;2023-06-05T12:01:17;25.40;96.30
21744;DHT22;11034;48.556;9.342;2023-06-05T12:04:00;25.10;97.40
21744;DHT22;11034;48.556;9.342;2023-06-05T12:06:29;24.80;97.60
21744;DHT22;11034;48.556;9.342;2023-06-05T12:09:06;25.00;97.60
21744;DHT22;11034;48.556;9.342;2023-06-05T12:11:37;24.70;97.80
21744;DHT22;11034;48.556;9.342;2023-06-05T12:14:06;25.10;96.90
21744;DHT22;11034;48.556;9.342;2023-06-05T12:16:35;24.90;98.60
21744;DHT22;11034;48.556;9.342;2023-06-05T12:19:12;25.10;97.60
21744;DHT22;11034;48.556;9.342;2023-06-05T12:21:43;25.20;96.90
21744;DHT22;11034;48.556;9.342;2023-06-05T12:24:12;24.90;96.90
21744;DHT22;11034;48.556;9.342;2023-06-05T12:26:55;24.70;96.70
21744;DHT22;11034;48.556;9.342;2023-06-05T12:29:25;24.60;97.10
21744;DHT22;11034;48.556;9.342;2023-06-05T12:31:55;24.40;96.90
21744;DHT22;11034;48.556;9.342;2023-06-05T12:34:40;24.30;96.90
21744;DHT22;11034;48.556;9.342;2023-06-05T12:37:24;24.60;96.40
21744;DHT22;11034;48.556;9.342;2023-06-05T12:39:54;24.50;96.30
21744;DHT22;11034;48.556;9.342;2023-06-05T12:42:24;24.40;96.20
21744;DHT22;11034;48.556;9.342;2023-06-05T12:44:52;24.20;96.80
21744;DHT22;11034;48.556;9.342;2023-06-05T12:47:20;24.10;97.00
21744;DHT22;11034;48.556;9.342;2023-06-05T12:49:48;24.20;97.30
21744;DHT22;11034;48.556;9.342;2023-06-05T12:52:16;24.40;97.20
21744;DHT22;11034;48.556;9.342;2023-06-05T12:54:45;24.30;95.90
21744;DHT22;11034;48.556;9.342;2023-06-05T12:57:13;24.00;96.10
21744;DHT22;11034;48.556;9.342;2023-06-05T12:59:43;24.20;95.60
21744;DHT22;11034;48.556;9.342;2023-06-05T13:02:11;24.40;95.60
21744;DHT22;11034;48.556;9.342;2023-06-05T13:04:39;24.90;94.40
21744;DHT22;11034;48.556;9.342;2023-06-05T13:07:08;24.80;94.20
21744;DHT22;11034;48.556;9.342;2023-06-05T13:09:38;25.10;94.70
21744;DHT22;11034;48.556;9.342;2023-06-05T13:12:06;24.80;94.90
21744;DHT22;11034;48.556;9.342;2023-06-05T13:14:42;24.50;95.70
21744;DHT22;11034;48.556;9.342;2023-06-05T13:17:10;24.50;94.70
21744;DHT22;11034;48.556;9.342;2023-06-05T13:19:39;24.60;95.20
21744;DHT22;11034;48.556;9.342;2023-06-05T13:22:07;24.80;94.80
21744;DHT22;11034;48.556;9.342;2023-06-05T13:24:35;24.90;94.80
21744;DHT22;11034;48.556;9.342;2023-06-05T13:27:04;25.10;94.40
21744;DHT22;11034;48.556;9.342;2023-06-05T13:29:32;25.20;94.70
21744;DHT22;11034;48.556;9.342;2023-06-05T13:32:01;24.80;93.70
21744;DHT22;11034;48.556;9.342;2023-06-05T13:34:29;24.20;94.40
21744;DHT22;11034;48.556;9.342;2023-06-05T13:36:57;24.30;94.50
21744;DHT22;11034;48.556;9.342;2023-06-05T13:39:39;24.00;94.10
21744;DHT22;11034;48.556;9.342;2023-06-05T13:42:07;24.00;94.50
21744;DHT22;11034;48.556;9.342;2023-06-05T13:44:35;24.20;93.30
21744;DHT22;11034;48.556;9.342;2023-06-05T13:47:05;24.40;93.00
21744;DHT22;11034;48.556;9.342;2023-06-05T13:49:35;24.60;92.80
21744;DHT22;11034;48.556;9.342;2023-06-05T13:52:04;24.70;92.80
21744;DHT22;11034;48.556;9.342;2023-06-05T13:54:32;24.80;93.30
21744;DHT22;11034;48.556;9.342;2023-06-05T13:57:00;25.20;92.70
21744;DHT22;11034;48.556;9.342;2023-06-05T13:59:29;25.30;93.10
21744;DHT22;11034;48.556;9.342;2023-06-05T14:01:57;25.40;93.20
21744;DHT22;11034;48.556;9.342;2023-06-05T14:04:27;25.10;92.10
21744;DHT22;11034;48.556;9.342;2023-06-05T14:06:55;25.10;91.00
21744;DHT22;11034;48.556;9.342;2023-06-05T14:09:26;25.10;91.80
21744;DHT22;11034;48.556;9.342;2023-06-05T14:11:54;24.90;92.50
21744;DHT22;11034;48.556;9.342;2023-06-05T14:14:23;25.20;92.50
21744;DHT22;11034;48.556;9.342;2023-06-05T14:16:51;25.20;92.80
21744;DHT22;11034;48.556;9.342;2023-06-05T14:19:19;25.20;92.70
21744;DHT22;11034;48.556;9.342;2023-06-05T14:21:49;25.20;92.80
21744;DHT22;11034;48.556;9.342;2023-06-05T14:24:17;25.10;92.70
21744;DHT22;11034;48.556;9.342;2023-06-05T14:26:46;24.80;92.70
21744;DHT22;11034;48.556;9.342;2023-06-05T14:29:14;24.90;93.10
21744;DHT22;11034;48.556;9.342;2023-06-05T14:31:42;25.10;93.20
21744;DHT22;11034;48.556;9.342;2023-06-05T14:34:11;25.20;93.30
21744;DHT22;11034;48.556;9.342;2023-06-05T14:36:39;25.40;92.90
21744;DHT22;11034;48.556;9.342;2023-06-05T14:39:08;25.40;91.90
21744;DHT22;11034;48.556;9.342;2023-06-05T14:41:38;25.40;91.30
21744;DHT22;11034;48.556;9.342;2023-06-05T14:44:06;25.40;91.60
21744;DHT22;11034;48.556;9.342;2023-06-05T14:46:49;25.50;92.00
21744;DHT22;11034;48.556;9.342;2023-06-05T14:49:17;25.80;91.80
21744;DHT22;11034;48.556;9.342;2023-06-05T14:51:46;25.80;92.10
21744;DHT22;11034;48.556;9.342;2023-06-05T14:54:15;26.00;92.20
21744;DHT22;11034;48.556;9.342;2023-06-05T14:56:44;26.10;91.80
21744;DHT22;11034;48.556;9.342;2023-06-05T14:59:13;25.90;92.40
21744;DHT22;11034;48.556;9.342;2023-06-05T15:01:53;25.30;92.90
21744;DHT22;11034;48.556;9.342;2023-06-05T15:04:21;24.90;93.70
21744;DHT22;11034;48.556;9.342;2023-06-05T15:06:50;24.50;94.10
21744;DHT22;11034;48.556;9.342;2023-06-05T15:09:22;24.30;94.30
21744;DHT22;11034;48.556;9.342;2023-06-05T15:11:50;24.10;94.50
21744;DHT22;11034;48.556;9.342;2023-06-05T15:14:18;24.10;94.90
21744;DHT22;11034;48.556;9.342;2023-06-05T15:16:46;24.20;94.70
21744;DHT22;11034;48.556;9.342;2023-06-05T15:19:14;24.30;94.30
21744;DHT22;11034;48.556;9.342;2023-06-05T15:21:43;24.50;94.60
21744;DHT22;11034;48.556;9.342;2023-06-05T15:24:11;24.30;93.80
21744;DHT22;11034;48.556;9.342;2023-06-05T15:26:40;24.00;94.20
21744;DHT22;11034;48.556;9.342;2023-06-05T15:29:08;24.00;94.30
21744;DHT22;11034;48.556;9.342;2023-06-05T15:31:36;24.00;93.80
21744;DHT22;11034;48.556;9.342;2023-06-05T15:34:05;24.30;93.30
21744;DHT22;11034;48.556;9.342;2023-06-05T15:36:33;24.60;93.30
21744;DHT22;11034;48.556;9.342;2023-06-05T15:39:01;24.70;93.40
21744;DHT22;11034;48.556;9.342;2023-06-05T15:41:30;24.70;92.90
21744;DHT22;11034;48.556;9.342;2023-06-05T15:44:00;24.50;92.90
21744;DHT22;11034;48.556;9.342;2023-06-05T15:46:29;24.40;93.10
21744;DHT22;11034;48.556;9.342;2023-06-05T15:48:57;24.20;93.20
21744;DHT22;11034;48.556;9.342;2023-06-05T15:51:25;24.20;93.70